Helene — V7VF9 — position and weather

sailwx.info

Track history (hours):
 
Tides and Currents Weather Stations Pressure Air Temp Water Temp Dewpoint Dewpoint Depression Visibility Wind Speed Wind Dir Waves Ship Positions

Helene

Last reported at 2017-Mar-28 19:06 UTC. Time now 2017-Mar-29 13:28 UTC.
Position S 35°03' W 057°09'.

Length 207 m; draft 7.7 m.

Type: Cargo ship. MMSI: 538006866.

Date/timePositionNaut miles runAvg speedWind from/ knotsBaromVisibWave heightAir tempDewpointWater temp
2017-Mar-28 19:06S 35°03' W 057°09'713.1
2017-Mar-28 18:33S 34°58' W 057°15'1313.2
2017-Mar-28 17:32S 34°49' W 057°27'1313.5
2017-Mar-28 16:33S 34°44' W 057°42'1512.6
2017-Mar-28 15:23S 34°40' W 057°59'1214.7
2017-Mar-28 14:33S 34°37' W 058°14'7 2.2
2017-Mar-28 11:26S 34°35' W 058°22'0 0.0
2017-Mar-28 00:20S 34°35' W 058°22'0 0.0
2017-Mar-27 22:32S 34°35' W 058°22'0 0.0
2017-Mar-27 21:29S 34°35' W 058°22'0 0.0
2017-Mar-27 20:32S 34°35' W 058°22'0 0.0
2017-Mar-27 19:32S 34°35' W 058°22'0 0.0
2017-Mar-27 01:28S 34°35' W 058°22'0 0.0
2017-Mar-27 00:31S 34°35' W 058°22'0 0.0
2017-Mar-26 23:16S 34°35' W 058°22'0 0.0
2017-Mar-26 22:25S 34°35' W 058°22'0 0.0
2017-Mar-26 21:28S 34°35' W 058°22'0 0.0
2017-Mar-26 20:31S 34°35' W 058°22'3 1.3
2017-Mar-26 18:27S 34°36' W 058°19'1011.2
2017-Mar-26 17:33S 34°38' W 058°07'1111.4
2017-Mar-26 16:33S 34°42' W 057°54'3 3.2
2017-Mar-26 15:33S 34°44' W 057°51'0 0.1
2017-Mar-26 14:33S 34°44' W 057°51'0 0.0
2017-Mar-26 13:33S 34°44' W 057°51'0 0.0
2017-Mar-26 12:30S 34°44' W 057°51'0 0.0
2017-Mar-26 11:33S 34°44' W 057°51'0 0.0
2017-Mar-26 10:33S 34°44' W 057°51'0 0.0
2017-Mar-26 09:33S 34°44' W 057°51'0 0.0
2017-Mar-26 08:33S 34°44' W 057°51'0 0.0
2017-Mar-26 07:33S 34°44' W 057°51'0 0.0
2017-Mar-26 06:33S 34°44' W 057°51'0 0.0
2017-Mar-26 05:33S 34°44' W 057°51'0 0.0
2017-Mar-26 04:33S 34°44' W 057°51'0 0.0
2017-Mar-26 03:33S 34°44' W 057°51'0 0.2
2017-Mar-26 02:33S 34°44' W 057°51'0 0.1
2017-Mar-26 01:33S 34°44' W 057°51'0 0.0
2017-Mar-26 00:33S 34°44' W 057°51'0 0.1
2017-Mar-25 23:33S 34°44' W 057°51'6 6.4
2017-Mar-25 22:33S 34°44' W 057°43'1414.1
2017-Mar-25 21:32S 34°49' W 057°26'1414.1
2017-Mar-25 20:33S 34°58' W 057°14'1312.6
2017-Mar-25 19:33S 35°08' W 057°03'62013.2
2017-Mar-23 20:32S 28°01' W 048°15'1616.2
2017-Mar-23 19:33S 27°45' W 048°13'1616.1
2017-Mar-23 18:33S 27°29' W 048°13'3014.6
2017-Mar-23 16:28S 27°01' W 048°27'158 6.2
2017-Mar-22 15:13S 24°53' W 046°45'1015.4
2017-Mar-22 14:33S 24°45' W 046°38'1515.1
2017-Mar-22 13:33S 24°32' W 046°29'1514.7
2017-Mar-22 12:33S 24°18' W 046°25'1414.3
2017-Mar-22 11:34S 24°04' W 046°22'7 6.6
2017-Mar-22 10:30S 23°58' W 046°18'0 0.0
2017-Mar-22 09:30S 23°58' W 046°18'0 0.0
2017-Mar-22 08:24S 23°58' W 046°18'0 0.0
2017-Mar-22 07:27S 23°58' W 046°18'0 0.0
2017-Mar-22 06:33S 23°58' W 046°18'0 0.0
2017-Mar-22 05:33S 23°58' W 046°18'0 0.0
2017-Mar-22 04:29S 23°58' W 046°18'4 0.6
2017-Mar-21 21:13S 23°55' W 046°21'3 0.5
2017-Mar-21 16:16S 23°57' W 046°19'4 5.9
2017-Mar-21 15:33S 24°01' W 046°20'1212.1
2017-Mar-21 14:33S 24°13' W 046°20'2 2.4
2017-Mar-21 13:33S 24°14' W 046°18'0 0.1
2017-Mar-21 12:33S 24°14' W 046°18'6 5.7
2017-Mar-21 11:34S 24°08' W 046°19'1312.6
2017-Mar-21 10:33S 24°15' W 046°07'  
Track history (hours):
 
Tides and Currents Weather Stations Pressure Air Temp Water Temp Dewpoint Dewpoint Depression Visibility Wind Speed Wind Dir Waves Ship Positions

Helene

Last reported at 2017-Mar-28 19:06 UTC. Time now 2017-Mar-29 13:28 UTC.
Position S 35°03' W 057°09'.

Length 207 m; draft 7.7 m.

Type: Cargo ship. MMSI: 538006866.

Date/timePositionNaut miles runAvg speedWind from/ knotsBaromVisibWave heightAir tempDewpointWater temp
2017-Mar-28 19:06S 35°03' W 057°09'713.1
2017-Mar-28 18:33S 34°58' W 057°15'1313.2
2017-Mar-28 17:32S 34°49' W 057°27'1313.5
2017-Mar-28 16:33S 34°44' W 057°42'1512.6
2017-Mar-28 15:23S 34°40' W 057°59'1214.7
2017-Mar-28 14:33S 34°37' W 058°14'7 2.2
2017-Mar-28 11:26S 34°35' W 058°22'0 0.0
2017-Mar-28 00:20S 34°35' W 058°22'0 0.0
2017-Mar-27 22:32S 34°35' W 058°22'0 0.0
2017-Mar-27 21:29S 34°35' W 058°22'0 0.0
2017-Mar-27 20:32S 34°35' W 058°22'0 0.0
2017-Mar-27 19:32S 34°35' W 058°22'0 0.0
2017-Mar-27 01:28S 34°35' W 058°22'0 0.0
2017-Mar-27 00:31S 34°35' W 058°22'0 0.0
2017-Mar-26 23:16S 34°35' W 058°22'0 0.0
2017-Mar-26 22:25S 34°35' W 058°22'0 0.0
2017-Mar-26 21:28S 34°35' W 058°22'0 0.0
2017-Mar-26 20:31S 34°35' W 058°22'3 1.3
2017-Mar-26 18:27S 34°36' W 058°19'1011.2
2017-Mar-26 17:33S 34°38' W 058°07'1111.4
2017-Mar-26 16:33S 34°42' W 057°54'3 3.2
2017-Mar-26 15:33S 34°44' W 057°51'0 0.1
2017-Mar-26 14:33S 34°44' W 057°51'0 0.0
2017-Mar-26 13:33S 34°44' W 057°51'0 0.0
2017-Mar-26 12:30S 34°44' W 057°51'0 0.0
2017-Mar-26 11:33S 34°44' W 057°51'0 0.0
2017-Mar-26 10:33S 34°44' W 057°51'0 0.0
2017-Mar-26 09:33S 34°44' W 057°51'0 0.0
2017-Mar-26 08:33S 34°44' W 057°51'0 0.0
2017-Mar-26 07:33S 34°44' W 057°51'0 0.0
2017-Mar-26 06:33S 34°44' W 057°51'0 0.0
2017-Mar-26 05:33S 34°44' W 057°51'0 0.0
2017-Mar-26 04:33S 34°44' W 057°51'0 0.0
2017-Mar-26 03:33S 34°44' W 057°51'0 0.2
2017-Mar-26 02:33S 34°44' W 057°51'0 0.1
2017-Mar-26 01:33S 34°44' W 057°51'0 0.0
2017-Mar-26 00:33S 34°44' W 057°51'0 0.1
2017-Mar-25 23:33S 34°44' W 057°51'6 6.4
2017-Mar-25 22:33S 34°44' W 057°43'1414.1
2017-Mar-25 21:32S 34°49' W 057°26'1414.1
2017-Mar-25 20:33S 34°58' W 057°14'1312.6
2017-Mar-25 19:33S 35°08' W 057°03'62013.2
2017-Mar-23 20:32S 28°01' W 048°15'1616.2
2017-Mar-23 19:33S 27°45' W 048°13'1616.1
2017-Mar-23 18:33S 27°29' W 048°13'3014.6
2017-Mar-23 16:28S 27°01' W 048°27'158 6.2
2017-Mar-22 15:13S 24°53' W 046°45'1015.4
2017-Mar-22 14:33S 24°45' W 046°38'1515.1
2017-Mar-22 13:33S 24°32' W 046°29'1514.7
2017-Mar-22 12:33S 24°18' W 046°25'1414.3
2017-Mar-22 11:34S 24°04' W 046°22'7 6.6
2017-Mar-22 10:30S 23°58' W 046°18'0 0.0
2017-Mar-22 09:30S 23°58' W 046°18'0 0.0
2017-Mar-22 08:24S 23°58' W 046°18'0 0.0
2017-Mar-22 07:27S 23°58' W 046°18'0 0.0
2017-Mar-22 06:33S 23°58' W 046°18'0 0.0
2017-Mar-22 05:33S 23°58' W 046°18'0 0.0
2017-Mar-22 04:29S 23°58' W 046°18'4 0.6
2017-Mar-21 21:13S 23°55' W 046°21'3 0.5
2017-Mar-21 16:16S 23°57' W 046°19'4 5.9
2017-Mar-21 15:33S 24°01' W 046°20'1212.1
2017-Mar-21 14:33S 24°13' W 046°20'2 2.4
2017-Mar-21 13:33S 24°14' W 046°18'0 0.1
2017-Mar-21 12:33S 24°14' W 046°18'6 5.7
2017-Mar-21 11:34S 24°08' W 046°19'1312.6
2017-Mar-21 10:33S 24°15' W 046°07'  

Dump ship's entire track history